OPA Logo
 
ASOS:
At:2019.12.09 1215 UTC
Wind:210° @ 6KT
Viz: 10 mile(s)
Sky: mostly clear
Temp: 32 F (0 C)
DewP: 24 F (-4 C):1
RH: 30 F (-1 C)
Baro: 30 F (-1 C)
ob: KBDN 091215Z AUTO 21006KT 10SM FEW031 00/M01 A3017 RMK AO2

ASOS: KRDM
At:2019.12.09 1156 UTC
Wind:220° @ 4KT
Viz: 10 mile(s)
Sky: overcast
Temp: 34.0 F (1.1 C)
DewP: 30 F (-1 C):1
RH: 30.9 F (-0.6 C)
Baro: 30.9 F (-0.6 C)
ob: KRDM 091156Z AUTO 22004KT 10SM FEW030 OVC036 01/M01 A3018 RMK AO2 SLP228 T00111006 10028 20006 50002
Apache-SSL Logo

Valid HTML 4.01!

Central Oregon OPA Chapter

Calendar


Other Calendar pages

Oregon Pilots Association Events Calendar

Washington Pilots Association Events


Web page by: gem@rellim.com